Time;durP1;ratioP1;P1;durP2;ratioP2;P2;SDS_P1;SDS_P2;PMS_P1;PMS_P2;Temp;Humidity;BMP_temperature;BMP_pressure;BME280_temperature;BME280_humidity;BME280_pressure;Samples;Min_cycle;Max_cycle;Signal;HPM_P1;HPM_P2
2022/11/18 00:01:07;;;;;;;2.33;2.13;;;;;;;;;;5076725;28;20209;-87
2022/11/18 00:03:35;;;;;;;2.40;2.20;;;;;;;;;;5076652;28;20201;-86
2022/11/18 00:06:03;;;;;;;4.15;2.70;;;;;;;;;;5076537;28;20302;-86
2022/11/18 00:08:31;;;;;;;2.42;2.22;;;;;;;;;;5076530;28;20598;-87
2022/11/18 00:10:58;;;;;;;2.47;2.05;;;;;;;;;;5076132;28;20701;-86
2022/11/18 00:16:13;;;;;;;2.17;2.08;;;;;;;;;;5076565;28;20192;-86
2022/11/18 00:18:41;;;;;;;2.33;2.13;;;;;;;;;;5075918;28;20609;-87
2022/11/18 00:21:11;;;;;;;2.40;2.20;;;;;;;;;;5076078;28;20197;-86
2022/11/18 00:23:39;;;;;;;2.25;2.08;;;;;;;;;;5076393;28;20303;-86
2022/11/18 00:26:08;;;;;;;3.10;2.90;;;;;;;;;;5076408;28;20288;-87
2022/11/18 00:28:37;;;;;;;5.55;2.58;;;;;;;;;;5076074;28;20445;-87
2022/11/18 00:31:07;;;;;;;3.20;2.90;;;;;;;;;;5076326;28;20339;-86
2022/11/18 00:33:35;;;;;;;3.33;2.65;;;;;;;;;;5076316;28;20307;-85
2022/11/18 00:36:03;;;;;;;3.17;2.88;;;;;;;;;;5076939;28;20197;-86
2022/11/18 00:38:31;;;;;;;2.50;2.30;;;;;;;;;;5076171;28;20352;-86
2022/11/18 00:41:02;;;;;;;2.35;2.08;;;;;;;;;;5075785;28;20209;-86
2022/11/18 00:43:29;;;;;;;3.88;2.30;;;;;;;;;;5076716;28;20246;-87
2022/11/18 00:45:58;;;;;;;2.53;2.20;;;;;;;;;;5077218;28;20205;-86
2022/11/18 00:48:26;;;;;;;2.05;1.90;;;;;;;;;;5093157;28;20311;-85
2022/11/18 00:50:56;;;;;;;2.88;2.40;;;;;;;;;;5096348;28;20206;-86
2022/11/18 00:53:26;;;;;;;3.53;2.20;;;;;;;;;;5096176;28;20254;-85
2022/11/18 00:55:54;;;;;;;2.78;2.53;;;;;;;;;;5096151;28;20243;-87
2022/11/18 00:58:21;;;;;;;2.30;2.10;;;;;;;;;;5096401;28;20263;-86
2022/11/18 01:00:52;;;;;;;2.65;2.40;;;;;;;;;;5096200;28;20235;-87
2022/11/18 01:03:21;;;;;;;2.80;2.38;;;;;;;;;;5097037;28;20196;-86
2022/11/18 01:05:49;;;;;;;2.88;2.05;;;;;;;;;;5096061;28;20260;-85
2022/11/18 01:08:17;;;;;;;2.13;1.95;;;;;;;;;;5096260;28;20262;-87
2022/11/18 01:10:45;;;;;;;2.75;2.50;;;;;;;;;;5095331;28;20291;-87
2022/11/18 01:13:19;;;;;;;2.72;2.53;;;;;;;;;;5087210;28;20280;-88
2022/11/18 01:15:49;;;;;;;2.85;2.50;;;;;;;;;;5095287;28;20204;-87
2022/11/18 01:18:18;;;;;;;3.25;2.97;;;;;;;;;;5095024;28;20259;-87
2022/11/18 01:20:48;;;;;;;2.40;2.20;;;;;;;;;;5095348;28;20272;-87
2022/11/18 01:23:16;;;;;;;3.20;2.53;;;;;;;;;;5094780;28;20205;-88
2022/11/18 01:25:45;;;;;;;2.92;2.38;;;;;;;;;;5095442;28;20292;-88
2022/11/18 01:28:15;;;;;;;2.72;2.00;;;;;;;;;;5094609;28;20311;-88
2022/11/18 01:30:43;;;;;;;1.92;1.83;;;;;;;;;;5095136;28;20196;-86
2022/11/18 01:33:10;;;;;;;2.65;1.70;;;;;;;;;;5094860;28;20206;-86
2022/11/18 01:35:39;;;;;;;1.48;1.38;;;;;;;;;;5094828;28;20336;-87
2022/11/18 01:38:10;;;;;;;1.45;1.35;;;;;;;;;;5094542;28;20354;-87
2022/11/18 01:40:38;;;;;;;2.50;1.85;;;;;;;;;;5095338;28;20283;-86
2022/11/18 01:43:11;;;;;;;1.50;1.40;;;;;;;;;;5074164;28;20236;-87
2022/11/18 01:45:41;;;;;;;1.60;1.50;;;;;;;;;;5074537;28;20637;-87
2022/11/18 01:48:11;;;;;;;1.60;1.50;;;;;;;;;;5074056;28;20304;-85
2022/11/18 01:50:43;;;;;;;1.48;1.42;;;;;;;;;;5074454;28;20209;-88
2022/11/18 01:53:16;;;;;;;1.75;1.65;;;;;;;;;;5074224;28;20292;-86
2022/11/18 01:55:47;;;;;;;2.03;1.70;;;;;;;;;;5075114;28;20303;-86
2022/11/18 01:58:22;;;;;;;1.70;1.60;;;;;;;;;;5075000;28;20731;-86
2022/11/18 02:00:50;;;;;;;1.25;1.25;;;;;;;;;;5074374;28;20201;-86
2022/11/18 02:03:18;;;;;;;1.45;1.35;;;;;;;;;;5073742;28;20638;-88
2022/11/18 02:05:47;;;;;;;1.67;1.58;;;;;;;;;;5074684;28;20716;-85
2022/11/18 02:08:18;;;;;;;1.58;1.48;;;;;;;;;;5075350;28;20643;-86
2022/11/18 02:10:46;;;;;;;1.92;1.83;;;;;;;;;;5076517;28;20621;-85
2022/11/18 02:13:14;;;;;;;3.17;1.90;;;;;;;;;;5095278;28;20232;-85
2022/11/18 02:15:49;;;;;;;2.90;2.67;;;;;;;;;;5094986;28;20308;-86
2022/11/18 02:18:29;;;;;;;3.88;2.72;;;;;;;;;;5094326;28;20251;-86
2022/11/18 02:21:00;;;;;;;2.85;2.60;;;;;;;;;;5094945;28;20267;-86
2022/11/18 02:24:17;;;;;;;2.97;2.70;;;;;;;;;;5094758;28;20283;-86
2022/11/18 02:27:40;;;;;;;2.70;2.50;;;;;;;;;;5095035;28;20224;-88
2022/11/18 02:30:11;;;;;;;2.88;2.67;;;;;;;;;;5094388;28;20235;-88
2022/11/18 02:32:43;;;;;;;3.00;2.80;;;;;;;;;;5094379;28;20271;-86
2022/11/18 02:35:15;;;;;;;2.67;2.47;;;;;;;;;;5094591;28;20299;-89
2022/11/18 02:37:49;;;;;;;2.75;2.53;;;;;;;;;;5094358;28;20280;-88
2022/11/18 02:40:22;;;;;;;1.73;1.63;;;;;;;;;;5093934;28;20275;-87
2022/11/18 02:42:55;;;;;;;2.10;2.00;;;;;;;;;;5075582;28;20229;-88
2022/11/18 02:45:24;;;;;;;1.35;1.33;;;;;;;;;;5074181;28;20618;-87
2022/11/18 02:47:53;;;;;;;1.60;1.50;;;;;;;;;;5073730;28;20650;-88
2022/11/18 02:50:25;;;;;;;1.45;1.35;;;;;;;;;;5073486;28;20287;-88
2022/11/18 02:52:57;;;;;;;1.50;1.40;;;;;;;;;;5073876;28;20274;-86
2022/11/18 02:55:25;;;;;;;2.20;2.00;;;;;;;;;;5073373;28;20209;-87
2022/11/18 02:57:53;;;;;;;1.73;1.63;;;;;;;;;;5073632;28;20312;-85
2022/11/18 03:00:21;;;;;;;1.98;1.88;;;;;;;;;;5073586;28;20295;-87
2022/11/18 03:02:50;;;;;;;1.80;1.70;;;;;;;;;;5074334;28;20238;-86
2022/11/18 03:05:23;;;;;;;1.88;1.77;;;;;;;;;;5073697;28;20228;-87
2022/11/18 03:07:55;;;;;;;2.20;2.00;;;;;;;;;;5074171;28;20309;-88
2022/11/18 03:10:25;;;;;;;2.05;1.95;;;;;;;;;;5073986;28;20182;-86
2022/11/18 03:13:01;;;;;;;2.63;2.42;;;;;;;;;;5096120;28;20231;-87
2022/11/18 03:15:36;;;;;;;1.92;1.83;;;;;;;;;;5098475;28;20295;-86
2022/11/18 03:18:16;;;;;;;3.10;2.80;;;;;;;;;;5097836;28;20266;-87
2022/11/18 03:20:49;;;;;;;2.75;2.55;;;;;;;;;;5097930;28;20267;-87
2022/11/18 03:23:25;;;;;;;2.70;2.50;;;;;;;;;;5097672;28;20280;-86
2022/11/18 03:25:56;;;;;;;3.40;3.10;;;;;;;;;;5097815;28;20211;-88
2022/11/18 03:28:27;;;;;;;3.60;2.25;;;;;;;;;;5097666;28;20329;-86
2022/11/18 03:31:00;;;;;;;1.73;1.63;;;;;;;;;;5098058;28;20808;-86
2022/11/18 03:33:35;;;;;;;2.00;1.90;;;;;;;;;;5097842;28;20309;-87
2022/11/18 03:36:06;;;;;;;2.17;2.00;;;;;;;;;;5097610;28;20303;-88
2022/11/18 03:38:38;;;;;;;2.22;2.03;;;;;;;;;;5097433;28;20301;-87
2022/11/18 03:41:10;;;;;;;2.50;2.30;;;;;;;;;;5097533;28;20293;-86
2022/11/18 03:43:40;;;;;;;2.03;1.92;;;;;;;;;;5097475;28;20272;-86
2022/11/18 03:46:11;;;;;;;1.50;1.40;;;;;;;;;;5097089;28;20736;-87
2022/11/18 03:48:43;;;;;;;1.77;1.67;;;;;;;;;;5097757;28;20856;-87
2022/11/18 03:51:17;;;;;;;2.50;2.30;;;;;;;;;;5098038;28;20280;-86
2022/11/18 03:53:48;;;;;;;1.90;1.80;;;;;;;;;;5097798;28;20212;-85
2022/11/18 03:56:18;;;;;;;1.70;1.58;;;;;;;;;;5097586;28;20827;-86
2022/11/18 03:58:53;;;;;;;2.28;2.03;;;;;;;;;;5097544;28;20232;-86
2022/11/18 04:01:25;;;;;;;2.08;1.90;;;;;;;;;;5097155;28;20290;-85
2022/11/18 04:03:54;;;;;;;1.63;1.52;;;;;;;;;;5097484;28;20280;-87
2022/11/18 04:06:29;;;;;;;1.67;1.58;;;;;;;;;;5097035;28;20207;-86
2022/11/18 04:09:01;;;;;;;1.83;1.73;;;;;;;;;;5096335;28;20249;-86
2022/11/18 04:14:20;;;;;;;1.88;1.75;;;;;;;;;;5096932;28;20314;-86
2022/11/18 04:16:52;;;;;;;2.35;2.15;;;;;;;;;;5097165;28;20315;-86
2022/11/18 04:19:21;;;;;;;2.30;2.10;;;;;;;;;;5096056;28;20605;-85
2022/11/18 04:21:49;;;;;;;2.38;2.28;;;;;;;;;;5096812;28;20286;-85
2022/11/18 04:24:17;;;;;;;2.40;2.22;;;;;;;;;;5095765;28;20235;-85
2022/11/18 04:26:44;;;;;;;2.65;2.42;;;;;;;;;;5096323;28;20287;-85
2022/11/18 04:29:12;;;;;;;2.65;2.45;;;;;;;;;;5096818;28;20311;-86
2022/11/18 04:31:39;;;;;;;2.40;2.20;;;;;;;;;;5096767;28;20223;-85
2022/11/18 04:34:07;;;;;;;1.98;1.88;;;;;;;;;;5096400;28;20250;-85
2022/11/18 04:36:35;;;;;;;2.60;2.40;;;;;;;;;;5096117;28;20311;-85
2022/11/18 04:39:03;;;;;;;2.50;2.38;;;;;;;;;;5096430;28;20753;-85
2022/11/18 04:44:15;;;;;;;1.77;1.67;;;;;;;;;;5096216;28;20188;-85
2022/11/18 04:46:44;;;;;;;1.73;1.63;;;;;;;;;;5096228;28;20648;-86
2022/11/18 04:49:14;;;;;;;2.00;1.90;;;;;;;;;;5096244;28;20711;-85
2022/11/18 04:51:44;;;;;;;1.70;1.60;;;;;;;;;;5096623;28;20239;-87
2022/11/18 04:54:13;;;;;;;1.65;1.55;;;;;;;;;;5096557;28;20799;-86
2022/11/18 04:56:41;;;;;;;1.45;1.40;;;;;;;;;;5095468;28;20366;-86
2022/11/18 04:59:08;;;;;;;1.60;1.50;;;;;;;;;;5095915;28;20723;-88
2022/11/18 05:01:36;;;;;;;2.00;1.90;;;;;;;;;;5096074;28;20684;-87
2022/11/18 05:04:05;;;;;;;1.70;1.60;;;;;;;;;;5095876;28;20264;-86
2022/11/18 05:06:34;;;;;;;1.58;1.48;;;;;;;;;;5095508;28;20578;-87
2022/11/18 05:09:03;;;;;;;1.45;1.35;;;;;;;;;;5095045;28;20308;-87
2022/11/18 05:14:16;;;;;;;3.42;3.15;;;;;;;;;;5073947;28;20184;-85
2022/11/18 05:16:43;;;;;;;3.00;2.80;;;;;;;;;;5075121;28;20374;-84
2022/11/18 05:19:11;;;;;;;2.88;2.67;;;;;;;;;;5078752;22;20315;-87
2022/11/18 05:21:39;;;;;;;2.80;2.60;;;;;;;;;;5073818;28;20229;-87
2022/11/18 05:24:08;;;;;;;3.15;2.85;;;;;;;;;;5076141;28;20248;-87
2022/11/18 05:26:36;;;;;;;2.83;2.63;;;;;;;;;;5075326;28;20220;-87
2022/11/18 05:29:04;;;;;;;2.47;2.30;;;;;;;;;;5074996;28;20358;-86
2022/11/18 05:31:31;;;;;;;2.70;2.50;;;;;;;;;;5075058;28;20287;-87
2022/11/18 05:33:59;;;;;;;2.58;2.38;;;;;;;;;;5075382;28;20292;-86
2022/11/18 05:36:28;;;;;;;2.65;2.45;;;;;;;;;;5075255;28;20284;-87
2022/11/18 05:38:58;;;;;;;2.50;2.30;;;;;;;;;;5075295;28;20713;-86
2022/11/18 05:44:11;;;;;;;2.90;2.70;;;;;;;;;;5054774;28;20620;-86
2022/11/18 05:46:39;;;;;;;2.15;2.05;;;;;;;;;;5054871;28;20305;-87
2022/11/18 05:49:07;;;;;;;1.88;1.77;;;;;;;;;;5054803;28;20244;-86
2022/11/18 05:51:35;;;;;;;2.67;2.50;;;;;;;;;;5054401;28;20649;-86
2022/11/18 05:54:07;;;;;;;2.17;1.98;;;;;;;;;;5055216;28;20218;-87
2022/11/18 05:56:38;;;;;;;1.80;1.70;;;;;;;;;;5054551;28;20300;-88
2022/11/18 05:59:06;;;;;;;3.05;2.85;;;;;;;;;;5054520;28;21141;-87
2022/11/18 06:01:38;;;;;;;3.75;3.45;;;;;;;;;;5054648;28;20621;-87
2022/11/18 06:04:12;;;;;;;2.45;2.25;;;;;;;;;;5054798;28;20268;-87
2022/11/18 06:06:47;;;;;;;2.85;2.65;;;;;;;;;;5054694;28;20217;-88
2022/11/18 06:09:18;;;;;;;2.67;2.47;;;;;;;;;;5054597;28;20701;-87
2022/11/18 06:12:00;;;;;;;3.45;3.25;;;;;;;;;;5064187;28;20234;-87
2022/11/18 06:14:31;;;;;;;3.47;3.20;;;;;;;;;;5074824;28;20292;-87
2022/11/18 06:17:05;;;;;;;3.45;3.10;;;;;;;;;;5072050;28;20288;-88
2022/11/18 06:19:33;;;;;;;2.25;2.13;;;;;;;;;;5069249;28;20248;-87
2022/11/18 06:22:01;;;;;;;3.33;3.00;;;;;;;;;;5053890;28;20608;-89
2022/11/18 06:24:28;;;;;;;2.60;2.40;;;;;;;;;;5054288;28;20250;-88
2022/11/18 06:26:56;;;;;;;3.05;2.83;;;;;;;;;;5054108;28;20204;-88
2022/11/18 06:29:25;;;;;;;2.60;2.40;;;;;;;;;;5053431;28;20313;-87
2022/11/18 06:31:52;;;;;;;2.38;2.17;;;;;;;;;;5053131;28;20286;-88
2022/11/18 06:34:20;;;;;;;2.38;2.17;;;;;;;;;;5052854;28;20562;-88
2022/11/18 06:36:47;;;;;;;2.42;2.22;;;;;;;;;;5052548;28;20256;-88
2022/11/18 06:39:15;;;;;;;2.60;2.40;;;;;;;;;;5052404;28;20222;-88
2022/11/18 06:41:42;;;;;;;2.80;2.60;;;;;;;;;;5062780;28;20243;-86
2022/11/18 06:44:11;;;;;;;3.47;3.17;;;;;;;;;;5073009;28;20288;-87
2022/11/18 06:46:58;;;;;;;3.03;2.83;;;;;;;;;;5073057;28;20205;-88
2022/11/18 06:49:27;;;;;;;4.53;4.13;;;;;;;;;;5053483;28;20582;-88
2022/11/18 06:51:55;;;;;;;3.72;3.42;;;;;;;;;;5053915;28;20628;-87
2022/11/18 06:54:32;;;;;;;4.15;3.75;;;;;;;;;;5052647;28;20201;-88
2022/11/18 06:57:00;;;;;;;3.78;3.47;;;;;;;;;;5052510;28;20217;-88
2022/11/18 06:59:27;;;;;;;5.68;4.80;;;;;;;;;;5052200;28;20249;-87
2022/11/18 07:01:56;;;;;;;6.05;5.28;;;;;;;;;;5053106;28;20208;-88
2022/11/18 07:04:23;;;;;;;5.75;5.10;;;;;;;;;;5052892;28;20678;-87
2022/11/18 07:06:51;;;;;;;6.10;5.50;;;;;;;;;;5052532;28;20251;-88
2022/11/18 07:09:18;;;;;;;5.40;4.90;;;;;;;;;;5051971;28;20260;-88
2022/11/18 07:11:46;;;;;;;7.22;6.45;;;;;;;;;;5052807;28;20768;-88
2022/11/18 07:14:14;;;;;;;5.07;4.57;;;;;;;;;;5052809;28;20292;-88
2022/11/18 07:16:42;;;;;;;5.10;4.70;;;;;;;;;;5052629;28;20689;-88
2022/11/18 07:19:12;;;;;;;5.63;5.07;;;;;;;;;;5071609;28;20371;-88
2022/11/18 07:21:42;;;;;;;4.45;3.95;;;;;;;;;;5072798;28;20669;-88
2022/11/18 07:24:11;;;;;;;3.75;3.45;;;;;;;;;;5072343;28;20207;-88
2022/11/18 07:26:39;;;;;;;4.80;4.35;;;;;;;;;;5072816;28;20291;-88
2022/11/18 07:29:06;;;;;;;4.35;3.95;;;;;;;;;;5071811;28;20307;-88
2022/11/18 07:31:36;;;;;;;5.72;5.00;;;;;;;;;;5072735;28;20211;-88
2022/11/18 07:34:04;;;;;;;4.90;4.50;;;;;;;;;;5072385;28;20201;-88
2022/11/18 07:36:33;;;;;;;10.63;6.95;;;;;;;;;;5072317;28;20280;-88
2022/11/18 07:39:01;;;;;;;5.20;4.72;;;;;;;;;;5071726;28;20312;-88
2022/11/18 07:41:30;;;;;;;6.07;5.47;;;;;;;;;;5065285;28;20423;-89
2022/11/18 07:44:00;;;;;;;6.40;5.65;;;;;;;;;;5052190;28;20240;-88
2022/11/18 07:46:30;;;;;;;6.07;5.38;;;;;;;;;;5051995;28;20292;-88
2022/11/18 07:48:59;;;;;;;7.07;5.80;;;;;;;;;;5069832;28;20225;-87
2022/11/18 07:51:30;;;;;;;6.03;5.50;;;;;;;;;;5072015;28;20288;-88
2022/11/18 07:53:59;;;;;;;6.75;6.07;;;;;;;;;;5072458;28;20239;-88
2022/11/18 07:56:26;;;;;;;6.65;6.05;;;;;;;;;;5072643;28;20291;-88
2022/11/18 07:58:55;;;;;;;6.93;5.68;;;;;;;;;;5072946;28;20648;-88
2022/11/18 08:01:26;;;;;;;8.40;5.13;;;;;;;;;;5075827;28;20288;-88
2022/11/18 08:03:53;;;;;;;5.82;5.00;;;;;;;;;;5076185;28;20276;-88
2022/11/18 08:06:21;;;;;;;6.72;6.05;;;;;;;;;;5075740;28;20714;-88
2022/11/18 08:08:49;;;;;;;7.05;6.00;;;;;;;;;;5074892;28;20303;-87
2022/11/18 08:11:19;;;;;;;6.57;5.90;;;;;;;;;;5070394;28;20288;-88
2022/11/18 08:13:47;;;;;;;8.77;6.90;;;;;;;;;;5055606;28;20733;-87
2022/11/18 08:16:25;;;;;;;9.30;7.30;;;;;;;;;;5055379;28;20689;-88
2022/11/18 08:18:54;;;;;;;8.77;7.88;;;;;;;;;;5072205;28;20714;-88
2022/11/18 08:21:23;;;;;;;8.73;7.63;;;;;;;;;;5075546;28;20287;-88
2022/11/18 08:23:51;;;;;;;8.18;7.45;;;;;;;;;;5075624;28;20254;-88
2022/11/18 08:26:20;;;;;;;5.28;4.53;;;;;;;;;;5075429;28;20678;-88
2022/11/18 08:28:48;;;;;;;6.97;6.28;;;;;;;;;;5075085;28;20308;-88
2022/11/18 08:31:18;;;;;;;6.88;5.28;;;;;;;;;;5075412;28;20228;-88
2022/11/18 08:33:46;;;;;;;7.25;6.55;;;;;;;;;;5075473;28;20324;-88
2022/11/18 08:36:17;;;;;;;6.72;6.05;;;;;;;;;;5075332;28;20196;-87
2022/11/18 08:38:45;;;;;;;6.82;6.22;;;;;;;;;;5074943;28;20304;-88
2022/11/18 08:41:14;;;;;;;7.10;6.03;;;;;;;;;;5075022;28;20209;-88
2022/11/18 08:43:43;;;;;;;8.07;7.28;;;;;;;;;;5075144;28;20201;-88
2022/11/18 08:46:10;;;;;;;7.13;6.43;;;;;;;;;;5074896;28;20237;-88
2022/11/18 08:48:38;;;;;;;6.50;5.88;;;;;;;;;;5074247;28;20304;-88
2022/11/18 08:51:06;;;;;;;7.13;6.43;;;;;;;;;;5074359;28;20228;-88
2022/11/18 08:53:33;;;;;;;8.77;6.63;;;;;;;;;;5074834;28;20666;-88
2022/11/18 08:56:01;;;;;;;8.07;7.22;;;;;;;;;;5074738;28;20233;-88
2022/11/18 08:58:29;;;;;;;10.02;8.15;;;;;;;;;;5074358;28;20304;-88
2022/11/18 09:00:58;;;;;;;8.52;7.43;;;;;;;;;;5074443;28;20232;-87
2022/11/18 09:03:26;;;;;;;9.65;8.65;;;;;;;;;;5074812;28;20750;-88
2022/11/18 09:05:53;;;;;;;7.93;7.15;;;;;;;;;;5074664;28;20201;-88
2022/11/18 09:08:25;;;;;;;7.30;6.57;;;;;;;;;;5074037;28;20287;-88
2022/11/18 09:10:52;;;;;;;8.23;6.72;;;;;;;;;;5071660;28;20212;-88
2022/11/18 09:13:20;;;;;;;8.75;7.80;;;;;;;;;;5054706;28;20720;-88
2022/11/18 09:15:47;;;;;;;8.00;7.15;;;;;;;;;;5053972;28;20688;-88
2022/11/18 09:18:16;;;;;;;10.05;8.40;;;;;;;;;;5065836;28;20657;-87
2022/11/18 09:20:44;;;;;;;9.55;7.53;;;;;;;;;;5074340;28;20284;-89
2022/11/18 09:23:11;;;;;;;7.85;7.05;;;;;;;;;;5073770;28;20291;-88
2022/11/18 09:25:39;;;;;;;5.95;5.45;;;;;;;;;;5074105;28;20687;-88
2022/11/18 09:28:06;;;;;;;4.80;4.30;;;;;;;;;;5073941;28;20233;-88
2022/11/18 09:30:34;;;;;;;4.55;4.15;;;;;;;;;;5074080;28;20305;-88
2022/11/18 09:33:01;;;;;;;5.07;4.57;;;;;;;;;;5073726;28;20240;-88
2022/11/18 09:35:31;;;;;;;4.60;4.20;;;;;;;;;;5074047;28;20303;-88
2022/11/18 09:37:58;;;;;;;4.95;4.55;;;;;;;;;;5073649;28;20665;-88
2022/11/18 09:40:26;;;;;;;5.93;5.40;;;;;;;;;;5073636;28;20634;-89
2022/11/18 09:43:01;;;;;;;4.95;4.50;;;;;;;;;;5073384;28;20291;-88
2022/11/18 09:45:36;;;;;;;4.72;4.32;;;;;;;;;;5073547;28;20276;-89
2022/11/18 09:48:14;;;;;;;8.30;7.50;;;;;;;;;;5073549;28;20277;-88
2022/11/18 09:50:43;;;;;;;8.93;7.63;;;;;;;;;;5073814;28;20694;-89
2022/11/18 09:53:19;;;;;;;14.82;9.77;;;;;;;;;;5073326;28;20264;-88
2022/11/18 09:55:48;;;;;;;10.90;8.73;;;;;;;;;;5073498;28;20228;-88
2022/11/18 09:58:20;;;;;;;8.75;7.00;;;;;;;;;;5073250;28;20621;-88
2022/11/18 10:00:47;;;;;;;10.45;9.00;;;;;;;;;;5073468;28;20636;-88
2022/11/18 10:03:20;;;;;;;6.07;5.50;;;;;;;;;;5073399;28;20610;-89
2022/11/18 10:05:55;;;;;;;9.23;6.05;;;;;;;;;;5057272;28;20221;-89
2022/11/18 10:08:27;;;;;;;9.30;7.55;;;;;;;;;;5052900;28;20265;-89
2022/11/18 10:11:00;;;;;;;10.43;9.32;;;;;;;;;;5055640;28;20296;-89
2022/11/18 10:13:42;;;;;;;6.53;5.88;;;;;;;;;;5073292;28;20189;-89
2022/11/18 10:16:27;;;;;;;7.03;5.80;;;;;;;;;;5073091;28;20215;-88
2022/11/18 10:19:01;;;;;;;6.85;5.75;;;;;;;;;;5072625;28;20261;-89
2022/11/18 10:21:42;;;;;;;8.70;6.68;;;;;;;;;;5072674;28;20197;-88
2022/11/18 10:24:15;;;;;;;11.80;8.38;;;;;;;;;;5072945;28;20279;-87
2022/11/18 10:26:43;;;;;;;7.60;6.80;;;;;;;;;;5072873;28;20226;-89
2022/11/18 10:29:10;;;;;;;9.63;7.88;;;;;;;;;;5073059;28;20310;-88
2022/11/18 10:31:39;;;;;;;8.57;7.00;;;;;;;;;;5073137;28;20237;-88
2022/11/18 10:34:10;;;;;;;8.20;7.00;;;;;;;;;;5072966;28;20633;-89
2022/11/18 10:36:40;;;;;;;6.43;5.82;;;;;;;;;;5073038;28;20646;-88
2022/11/18 10:39:12;;;;;;;6.47;5.88;;;;;;;;;;5072622;28;20309;-89
2022/11/18 10:41:44;;;;;;;5.50;5.00;;;;;;;;;;5072852;28;20288;-89
2022/11/18 10:44:34;;;;;;;6.65;5.72;;;;;;;;;;5073146;28;20276;-89
2022/11/18 10:47:27;;;;;;;5.50;5.00;;;;;;;;;;5072963;28;20320;-88
2022/11/18 10:49:58;;;;;;;7.10;6.40;;;;;;;;;;5072726;28;20266;-89
2022/11/18 10:52:28;;;;;;;7.88;6.25;;;;;;;;;;5073037;28;20272;-89
2022/11/18 10:55:24;;;;;;;5.00;4.57;;;;;;;;;;5072864;28;20262;-88
2022/11/18 10:57:56;;;;;;;4.82;4.32;;;;;;;;;;5036740;28;20209;-89
2022/11/18 11:00:48;;;;;;;8.10;6.30;;;;;;;;;;5072102;28;20320;-88
2022/11/18 11:03:30;;;;;;;5.90;4.93;;;;;;;;;;5062362;28;20702;-89
2022/11/18 11:06:23;;;;;;;6.80;5.93;;;;;;;;;;5072787;28;20243;-88
2022/11/18 11:08:53;;;;;;;6.72;5.68;;;;;;;;;;5071875;28;20228;-90
2022/11/18 11:11:27;;;;;;;7.38;6.68;;;;;;;;;;5066326;28;20296;-89
2022/11/18 11:14:04;;;;;;;5.95;5.07;;;;;;;;;;5052442;28;20197;-88
2022/11/18 11:16:38;;;;;;;5.13;4.65;;;;;;;;;;5052418;28;20290;-88
2022/11/18 11:19:06;;;;;;;3.90;3.53;;;;;;;;;;5071610;28;20687;-87
2022/11/18 11:21:34;;;;;;;4.30;3.90;;;;;;;;;;5073207;28;20292;-87
2022/11/18 11:24:09;;;;;;;5.85;4.20;;;;;;;;;;5073605;28;20673;-87
2022/11/18 11:26:53;;;;;;;4.05;3.67;;;;;;;;;;5073346;28;20220;-87
2022/11/18 11:29:38;;;;;;;6.07;5.35;;;;;;;;;;5071532;28;20270;-86
2022/11/18 11:32:16;;;;;;;5.50;4.75;;;;;;;;;;5058099;28;20185;-87
2022/11/18 11:34:48;;;;;;;8.02;6.28;;;;;;;;;;5056646;28;20273;-87
2022/11/18 11:37:24;;;;;;;8.20;7.03;;;;;;;;;;5055992;28;20292;-87
2022/11/18 11:40:12;;;;;;;7.05;5.70;;;;;;;;;;5056940;28;20320;-86
2022/11/18 11:42:50;;;;;;;6.78;6.13;;;;;;;;;;5056767;28;20300;-87
2022/11/18 11:45:27;;;;;;;4.38;3.70;;;;;;;;;;5056567;28;20276;-88
2022/11/18 11:48:21;;;;;;;4.43;4.03;;;;;;;;;;5056470;28;20197;-87
2022/11/18 11:50:55;;;;;;;4.53;4.10;;;;;;;;;;5056777;28;20244;-87
2022/11/18 11:53:42;;;;;;;7.43;5.93;;;;;;;;;;5056912;28;20243;-87
2022/11/18 11:56:17;;;;;;;6.05;5.45;;;;;;;;;;5057274;28;20225;-85
2022/11/18 11:59:07;;;;;;;6.53;4.55;;;;;;;;;;5056810;28;20217;-87
2022/11/18 12:01:40;;;;;;;6.28;5.63;;;;;;;;;;5056277;28;20212;-87
2022/11/18 12:04:23;;;;;;;5.00;4.10;;;;;;;;;;5056503;28;20217;-87
2022/11/18 12:06:53;;;;;;;4.28;3.88;;;;;;;;;;5056235;28;20219;-86
2022/11/18 12:09:35;;;;;;;3.88;3.58;;;;;;;;;;5055961;28;20313;-86
2022/11/18 12:12:33;;;;;;;4.15;3.75;;;;;;;;;;5068360;28;20233;-87
2022/11/18 12:15:00;;;;;;;4.43;3.72;;;;;;;;;;5076668;28;20201;-86
2022/11/18 12:17:34;;;;;;;4.15;3.65;;;;;;;;;;5076727;28;20185;-87
2022/11/18 12:20:08;;;;;;;4.07;3.78;;;;;;;;;;5075462;28;20677;-87
2022/11/18 12:23:11;;;;;;;4.88;4.40;;;;;;;;;;5075534;28;20202;-87
2022/11/18 12:26:04;;;;;;;4.95;4.50;;;;;;;;;;5076486;28;20292;-86
2022/11/18 12:28:37;;;;;;;3.40;3.10;;;;;;;;;;5076386;28;20634;-87
2022/11/18 12:31:34;;;;;;;3.97;3.67;;;;;;;;;;5076175;28;20272;-87
2022/11/18 12:34:31;;;;;;;4.05;3.65;;;;;;;;;;5075728;28;20201;-85
2022/11/18 12:37:45;;;;;;;3.50;3.20;;;;;;;;;;5076179;28;20746;-87
2022/11/18 12:40:40;;;;;;;4.10;3.80;;;;;;;;;;5075514;28;20269;-86
2022/11/18 12:44:03;;;;;;;3.65;3.35;;;;;;;;;;5055661;28;20206;-86
2022/11/18 12:46:54;;;;;;;3.58;3.30;;;;;;;;;;5055329;28;20204;-87
2022/11/18 12:50:12;;;;;;;4.18;3.88;;;;;;;;;;5055221;28;20737;-86
2022/11/18 12:52:52;;;;;;;2.80;2.58;;;;;;;;;;4994086;28;20731;-87
2022/11/18 12:55:25;;;;;;;3.10;2.88;;;;;;;;;;5046944;28;20589;-87
2022/11/18 12:57:54;;;;;;;6.95;5.38;;;;;;;;;;5055025;28;20235;-87
2022/11/18 13:00:50;;;;;;;3.72;3.42;;;;;;;;;;5054744;28;20233;-86
2022/11/18 13:03:27;;;;;;;6.40;4.22;;;;;;;;;;5055214;28;20190;-87
2022/11/18 13:06:02;;;;;;;6.47;5.30;;;;;;;;;;5055249;28;20276;-88
2022/11/18 13:08:30;;;;;;;3.70;3.40;;;;;;;;;;5054473;28;20205;-87
2022/11/18 13:17:50;;;;;;;3.75;3.38;;;;;;;;;;5047816;28;20209;-88
2022/11/18 13:19:27;;;;;;;4.25;3.92;;;;;;;;;;5054253;28;20379;-86
2022/11/18 13:24:46;;;;;;;6.28;4.72;;;;;;;;;;5054393;28;20193;-88
2022/11/18 13:27:46;;;;;;;4.45;3.78;;;;;;;;;;5054516;28;20219;-87
2022/11/18 13:30:15;;;;;;;2.90;2.70;;;;;;;;;;5054469;28;20309;-87
2022/11/18 13:32:44;;;;;;;4.93;4.43;;;;;;;;;;5054493;28;20631;-88
2022/11/18 13:35:16;;;;;;;5.75;5.13;;;;;;;;;;5053860;28;20209;-87
2022/11/18 13:37:52;;;;;;;5.63;5.13;;;;;;;;;;5054270;28;20280;-87
2022/11/18 13:40:23;;;;;;;3.10;2.80;;;;;;;;;;5053810;28;20267;-87
2022/11/18 13:42:51;;;;;;;3.05;2.63;;;;;;;;;;5072557;28;20280;-87
2022/11/18 13:45:19;;;;;;;4.38;3.38;;;;;;;;;;5073960;28;20204;-87
2022/11/18 13:47:48;;;;;;;3.33;2.92;;;;;;;;;;5073587;28;20316;-88
2022/11/18 13:50:23;;;;;;;2.72;2.53;;;;;;;;;;5073675;28;20216;-87
2022/11/18 13:53:12;;;;;;;3.17;2.97;;;;;;;;;;5073979;28;20323;-87
2022/11/18 13:55:44;;;;;;;2.90;2.70;;;;;;;;;;5074223;28;20589;-86
2022/11/18 13:58:33;;;;;;;2.88;2.65;;;;;;;;;;5074284;28;20288;-86
2022/11/18 14:01:03;;;;;;;4.00;3.63;;;;;;;;;;5073668;28;20292;-88
2022/11/18 14:03:34;;;;;;;3.33;3.10;;;;;;;;;;5073504;28;20189;-87
2022/11/18 14:06:03;;;;;;;3.15;2.95;;;;;;;;;;5073670;28;20807;-87
2022/11/18 14:08:32;;;;;;;3.58;3.28;;;;;;;;;;5073857;28;20258;-88
2022/11/18 14:11:01;;;;;;;3.50;3.20;;;;;;;;;;5070393;28;20293;-85
2022/11/18 14:13:32;;;;;;;3.33;3.03;;;;;;;;;;5053964;28;20240;-86
2022/11/18 14:16:01;;;;;;;2.75;2.55;;;;;;;;;;5054557;28;20230;-86
2022/11/18 14:18:32;;;;;;;2.45;2.25;;;;;;;;;;5067250;28;20240;-86
2022/11/18 14:21:03;;;;;;;2.33;2.13;;;;;;;;;;5074258;28;20270;-87
2022/11/18 14:23:33;;;;;;;2.40;2.20;;;;;;;;;;5067871;28;20271;-86
2022/11/18 14:26:04;;;;;;;3.35;2.72;;;;;;;;;;5053831;28;20554;-85
2022/11/18 14:28:35;;;;;;;2.65;2.45;;;;;;;;;;5053788;28;20288;-86
2022/11/18 14:31:06;;;;;;;1.90;1.80;;;;;;;;;;5054112;28;20178;-86
2022/11/18 14:33:36;;;;;;;2.20;2.10;;;;;;;;;;5054500;28;20193;-86
2022/11/18 14:36:12;;;;;;;1.92;1.83;;;;;;;;;;5053840;28;20233;-86
2022/11/18 14:38:44;;;;;;;2.03;1.88;;;;;;;;;;5054293;28;20228;-87
2022/11/18 14:41:14;;;;;;;1.67;1.58;;;;;;;;;;5053541;28;20324;-87
2022/11/18 14:43:44;;;;;;;2.13;1.92;;;;;;;;;;5054593;28;20243;-87
2022/11/18 14:46:16;;;;;;;1.90;1.80;;;;;;;;;;5053738;28;20201;-87
2022/11/18 14:48:44;;;;;;;1.77;1.60;;;;;;;;;;5053779;28;20708;-86
2022/11/18 14:51:16;;;;;;;2.67;2.47;;;;;;;;;;5053925;28;20310;-86
2022/11/18 14:53:44;;;;;;;2.10;2.00;;;;;;;;;;5054274;28;20654;-86
2022/11/18 14:56:15;;;;;;;1.50;1.40;;;;;;;;;;5054503;28;20205;-86
2022/11/18 14:58:43;;;;;;;1.83;1.73;;;;;;;;;;5053856;28;20225;-85
2022/11/18 15:01:12;;;;;;;2.40;2.20;;;;;;;;;;5054814;28;20240;-86
2022/11/18 15:03:39;;;;;;;2.75;2.33;;;;;;;;;;5055216;28;20233;-85
2022/11/18 15:06:14;;;;;;;1.95;1.85;;;;;;;;;;5054669;28;20259;-86
2022/11/18 15:08:42;;;;;;;1.67;1.58;;;;;;;;;;5055732;28;20328;-86
2022/11/18 15:11:10;;;;;;;1.65;1.55;;;;;;;;;;5062290;28;20201;-86
2022/11/18 15:13:38;;;;;;;2.08;1.98;;;;;;;;;;5077964;28;20293;-87
2022/11/18 15:16:13;;;;;;;1.77;1.60;;;;;;;;;;5078289;28;20704;-87
2022/11/18 15:18:41;;;;;;;2.25;1.85;;;;;;;;;;5077329;28;20238;-87
2022/11/18 15:21:08;;;;;;;2.15;1.83;;;;;;;;;;5077489;28;20232;-86
2022/11/18 15:23:37;;;;;;;2.50;2.17;;;;;;;;;;5077535;28;20287;-85
2022/11/18 15:26:18;;;;;;;2.60;2.30;;;;;;;;;;5077133;28;20289;-86
2022/11/18 15:28:46;;;;;;;1.70;1.60;;;;;;;;;;5077301;28;20233;-87
2022/11/18 15:31:14;;;;;;;2.03;1.85;;;;;;;;;;5078047;28;20662;-85
2022/11/18 15:33:41;;;;;;;2.05;1.92;;;;;;;;;;5077701;28;20288;-87
2022/11/18 15:36:13;;;;;;;2.40;2.20;;;;;;;;;;5077773;28;20637;-85